Time;durP1;ratioP1;P1;durP2;ratioP2;P2;SDS_P1;SDS_P2;PMS_P1;PMS_P2;Temp;Humidity;BMP_temperature;BMP_pressure;BME280_temperature;BME280_humidity;BME280_pressure;Samples;Min_cycle;Max_cycle;Signal;HPM_P1;HPM_P2
2021/09/09 00:01:01;;;;;;;11.05;8.80;;;13.90;99.90;;;;;;5061072;28;20210;-81
2021/09/09 00:03:27;;;;;;;11.90;8.63;;;13.80;99.90;;;;;;5060367;28;20177;-81
2021/09/09 00:05:52;;;;;;;10.35;9.25;;;13.80;99.90;;;;;;5043222;28;20280;-81
2021/09/09 00:08:18;;;;;;;12.15;8.80;;;13.80;99.90;;;;;;5043030;28;20177;-81
2021/09/09 00:10:44;;;;;;;11.13;9.13;;;13.70;99.90;;;;;;5044960;28;20232;-81
2021/09/09 00:13:10;;;;;;;13.70;9.23;;;13.70;99.90;;;;;;5063635;28;20186;-81
2021/09/09 00:15:36;;;;;;;12.90;9.80;;;13.70;99.90;;;;;;5046535;28;20197;-81
2021/09/09 00:18:02;;;;;;;13.20;9.52;;;13.70;99.90;;;;;;5046598;28;20193;-81
2021/09/09 00:20:27;;;;;;;11.88;9.43;;;13.60;99.90;;;;;;5034688;28;20201;-81
2021/09/09 00:22:53;;;;;;;14.63;9.45;;;13.60;99.90;;;;;;5046710;28;20177;-81
2021/09/09 00:25:19;;;;;;;12.20;9.73;;;13.60;99.90;;;;;;5064148;28;20389;-81
2021/09/09 00:27:44;;;;;;;12.77;9.75;;;13.50;99.90;;;;;;5046711;28;20185;-81
2021/09/09 00:30:11;;;;;;;11.80;9.23;;;13.50;99.90;;;;;;5046415;28;20304;-81
2021/09/09 00:32:36;;;;;;;12.13;9.55;;;13.40;99.90;;;;;;5064242;28;20228;-81
2021/09/09 00:35:02;;;;;;;12.35;8.90;;;13.40;99.90;;;;;;5045812;28;20293;-81
2021/09/09 00:37:28;;;;;;;12.38;9.05;;;13.50;99.90;;;;;;5040392;28;20193;-81
2021/09/09 00:39:54;;;;;;;11.82;8.88;;;13.40;99.90;;;;;;5046072;28;20178;-81
2021/09/09 00:42:19;;;;;;;11.68;8.68;;;13.40;99.90;;;;;;5045956;28;20186;-81
2021/09/09 00:44:45;;;;;;;12.77;9.40;;;13.40;99.90;;;;;;5045924;28;20239;-81
2021/09/09 00:47:12;;;;;;;12.27;8.88;;;13.40;99.90;;;;;;5064389;28;20181;-81
2021/09/09 00:49:40;;;;;;;11.25;9.10;;;13.40;99.90;;;;;;5046306;28;20182;-81
2021/09/09 00:52:08;;;;;;;12.73;9.23;;;13.40;99.90;;;;;;5046220;28;20212;-81
2021/09/09 00:54:34;;;;;;;12.10;9.10;;;13.30;99.90;;;;;;5062841;28;20233;-81
2021/09/09 00:57:03;;;;;;;11.10;9.27;;;13.40;99.90;;;;;;5046380;28;20195;-81
2021/09/09 00:59:31;;;;;;;11.73;9.18;;;13.30;99.90;;;;;;5064135;28;20174;-81
2021/09/09 01:01:56;;;;;;;13.25;9.13;;;13.30;99.90;;;;;;5046428;28;20234;-81
2021/09/09 01:04:22;;;;;;;11.55;8.68;;;13.30;99.90;;;;;;5045357;28;20268;-81
2021/09/09 01:06:48;;;;;;;14.00;9.85;;;13.30;99.90;;;;;;5063754;28;20173;-81
2021/09/09 01:09:14;;;;;;;12.77;10.18;;;13.40;99.90;;;;;;5045475;28;20185;-81
2021/09/09 01:11:39;;;;;;;14.65;10.55;;;13.40;99.90;;;;;;5045993;28;20216;-81
2021/09/09 01:14:08;;;;;;;12.98;10.65;;;13.30;99.90;;;;;;5063105;28;20182;-81
2021/09/09 01:16:35;;;;;;;12.88;8.93;;;13.30;99.90;;;;;;5062093;28;20289;-81
2021/09/09 01:19:01;;;;;;;12.73;9.40;;;13.30;99.90;;;;;;5063274;28;20185;-81
2021/09/09 01:21:27;;;;;;;13.07;9.55;;;13.30;99.90;;;;;;5044083;28;20262;-81
2021/09/09 01:23:58;;;;;;;12.18;9.50;;;13.30;99.90;;;;;;5045133;28;20268;-81
2021/09/09 01:26:27;;;;;;;12.80;9.63;;;13.30;99.90;;;;;;5063383;28;20192;-81
2021/09/09 01:28:53;;;;;;;13.30;10.40;;;13.30;99.90;;;;;;5062784;28;20269;-81
2021/09/09 01:31:19;;;;;;;11.88;9.18;;;13.30;99.90;;;;;;5045415;28;20232;-81
2021/09/09 01:33:44;;;;;;;15.18;10.00;;;13.30;99.90;;;;;;5045168;28;20190;-81
2021/09/09 01:36:10;;;;;;;12.13;9.23;;;13.30;99.90;;;;;;5063381;28;20213;-81
2021/09/09 01:38:36;;;;;;;15.63;10.70;;;13.30;99.90;;;;;;5063002;28;20644;-81
2021/09/09 01:41:02;;;;;;;12.90;9.98;;;13.30;99.90;;;;;;5063261;28;20225;-81
2021/09/09 01:43:28;;;;;;;11.32;9.68;;;13.20;99.90;;;;;;5062455;28;20201;-81
2021/09/09 01:45:54;;;;;;;13.40;10.18;;;13.20;99.90;;;;;;5045190;28;20733;-81
2021/09/09 01:48:19;;;;;;;13.65;9.65;;;13.10;99.90;;;;;;5062541;28;20663;-81
2021/09/09 01:50:45;;;;;;;12.13;10.27;;;13.10;99.90;;;;;;5044955;28;20642;-80
2021/09/09 01:53:10;;;;;;;13.20;11.02;;;13.20;99.90;;;;;;5044928;28;20191;-81
2021/09/09 01:55:36;;;;;;;11.85;10.02;;;13.10;99.90;;;;;;5061532;28;20461;-81
2021/09/09 01:58:02;;;;;;;12.63;10.15;;;13.20;99.90;;;;;;5044979;28;20268;-81
2021/09/09 02:00:27;;;;;;;13.43;10.25;;;13.10;99.90;;;;;;5062011;28;20197;-81
2021/09/09 02:02:53;;;;;;;13.45;10.82;;;13.10;99.90;;;;;;5061359;28;20291;-81
2021/09/09 02:05:18;;;;;;;12.68;9.68;;;13.10;99.90;;;;;;5062023;28;20190;-81
2021/09/09 02:07:44;;;;;;;14.75;11.07;;;13.10;99.90;;;;;;5062544;28;20272;-81
2021/09/09 02:10:10;;;;;;;16.20;10.15;;;13.10;99.90;;;;;;5043935;28;20190;-81
2021/09/09 02:12:35;;;;;;;13.82;9.93;;;13.10;99.90;;;;;;5062671;28;20644;-81
2021/09/09 02:15:02;;;;;;;11.65;10.02;;;13.00;99.90;;;;;;5062492;28;20297;-81
2021/09/09 02:17:27;;;;;;;13.05;10.35;;;13.00;99.90;;;;;;5061959;28;20206;-81
2021/09/09 02:19:53;;;;;;;14.45;10.60;;;13.00;99.90;;;;;;5044034;28;20190;-81
2021/09/09 02:22:19;;;;;;;16.45;10.90;;;13.00;99.90;;;;;;5062104;28;20201;-81
2021/09/09 02:24:45;;;;;;;13.43;10.98;;;13.00;99.90;;;;;;5044594;28;20666;-81
2021/09/09 02:27:12;;;;;;;15.02;10.77;;;13.00;99.90;;;;;;5044093;28;20196;-81
2021/09/09 02:29:39;;;;;;;15.43;10.60;;;13.00;99.90;;;;;;5044027;28;20181;-81
2021/09/09 02:32:05;;;;;;;14.35;10.52;;;13.00;99.90;;;;;;5061668;28;20201;-81
2021/09/09 02:34:30;;;;;;;15.82;10.90;;;12.90;99.90;;;;;;5043966;28;20862;-81
2021/09/09 02:36:56;;;;;;;14.85;10.68;;;12.90;99.90;;;;;;5061289;28;20277;-81
2021/09/09 02:39:22;;;;;;;15.43;11.38;;;13.00;99.90;;;;;;5061470;28;20197;-81
2021/09/09 02:41:47;;;;;;;14.35;11.10;;;13.00;99.90;;;;;;5044023;28;20213;-81
2021/09/09 02:44:13;;;;;;;15.05;11.00;;;12.90;99.90;;;;;;5061102;28;20196;-81
2021/09/09 02:46:39;;;;;;;16.30;11.10;;;12.90;99.90;;;;;;5044569;28;20196;-81
2021/09/09 02:49:04;;;;;;;15.55;11.35;;;12.90;99.90;;;;;;5044053;28;20683;-81
2021/09/09 02:51:30;;;;;;;15.90;10.73;;;12.90;99.90;;;;;;5060738;28;20209;-81
2021/09/09 02:53:55;;;;;;;14.57;10.85;;;12.90;99.90;;;;;;5043866;28;20184;-81
2021/09/09 02:56:21;;;;;;;12.38;10.27;;;12.80;99.90;;;;;;5061924;28;20576;-81
2021/09/09 02:58:47;;;;;;;15.20;11.45;;;12.80;99.90;;;;;;5061657;28;20922;-81
2021/09/09 03:01:12;;;;;;;16.00;10.93;;;12.70;99.90;;;;;;5061541;28;20197;-81
2021/09/09 03:03:39;;;;;;;15.07;10.75;;;12.70;99.90;;;;;;5041667;28;20186;-81
2021/09/09 03:06:06;;;;;;;17.60;12.32;;;12.70;99.90;;;;;;5046782;28;20200;-81
2021/09/09 03:08:32;;;;;;;15.95;11.48;;;12.70;99.90;;;;;;5063548;28;20554;-81
2021/09/09 03:10:57;;;;;;;18.33;12.15;;;12.70;99.90;;;;;;5059528;28;20224;-81
2021/09/09 03:13:23;;;;;;;15.38;11.30;;;12.70;99.90;;;;;;5061863;28;20185;-81
2021/09/09 03:15:49;;;;;;;15.35;12.02;;;12.60;99.90;;;;;;5057649;28;20209;-81
2021/09/09 03:18:15;;;;;;;15.00;12.27;;;12.60;99.90;;;;;;5043595;28;20205;-81
2021/09/09 03:20:40;;;;;;;16.40;12.40;;;12.60;99.90;;;;;;5061115;28;20264;-81
2021/09/09 03:23:06;;;;;;;17.63;12.07;;;12.60;99.90;;;;;;5043474;28;20733;-81
2021/09/09 03:25:32;;;;;;;16.13;12.27;;;12.60;99.90;;;;;;5052707;28;20198;-81
2021/09/09 03:27:57;;;;;;;18.77;12.32;;;12.60;99.90;;;;;;5039249;28;20186;-81
2021/09/09 03:30:23;;;;;;;17.40;12.23;;;12.60;99.90;;;;;;5038488;28;20646;-81
2021/09/09 03:32:48;;;;;;;18.38;13.45;;;12.50;99.90;;;;;;5040397;28;20432;-81
2021/09/09 03:35:14;;;;;;;15.23;11.30;;;12.50;99.90;;;;;;5038981;28;20525;-81
2021/09/09 03:37:39;;;;;;;15.38;12.18;;;12.50;99.90;;;;;;5042459;28;20655;-81
2021/09/09 03:40:05;;;;;;;17.20;13.02;;;12.50;99.90;;;;;;5042861;28;20185;-81
2021/09/09 03:42:31;;;;;;;17.58;13.15;;;12.40;99.90;;;;;;5060558;28;20212;-80
2021/09/09 03:44:57;;;;;;;18.33;12.82;;;12.50;99.90;;;;;;5059799;28;20631;-81
2021/09/09 03:47:22;;;;;;;18.48;13.73;;;12.50;99.90;;;;;;5064595;28;20543;-80
2021/09/09 03:49:48;;;;;;;16.17;12.57;;;12.50;99.90;;;;;;5063515;28;20192;-80
2021/09/09 03:52:13;;;;;;;19.23;12.88;;;12.50;99.90;;;;;;5063428;28;20627;-81
2021/09/09 03:54:39;;;;;;;18.70;14.18;;;12.40;99.90;;;;;;5047008;28;20236;-80
2021/09/09 03:57:05;;;;;;;21.33;14.27;;;12.40;99.90;;;;;;5064593;28;20264;-80
2021/09/09 03:59:30;;;;;;;19.38;13.93;;;12.30;99.90;;;;;;5063482;28;20269;-81
2021/09/09 04:01:56;;;;;;;20.75;14.93;;;12.30;99.90;;;;;;5047847;28;20204;-80
2021/09/09 04:04:21;;;;;;;22.35;14.88;;;12.20;99.90;;;;;;5047267;28;20266;-80
2021/09/09 04:06:47;;;;;;;21.65;14.65;;;12.20;99.90;;;;;;5047193;28;20185;-80
2021/09/09 04:09:12;;;;;;;19.15;14.65;;;12.20;99.90;;;;;;5046730;28;20182;-80
2021/09/09 04:11:38;;;;;;;20.35;14.57;;;12.10;99.90;;;;;;5064808;28;20699;-80
2021/09/09 04:14:04;;;;;;;18.80;14.50;;;12.10;99.90;;;;;;5064359;28;20178;-81
2021/09/09 04:16:30;;;;;;;19.98;14.07;;;12.10;99.90;;;;;;5063292;28;20702;-80
2021/09/09 04:18:55;;;;;;;21.63;15.57;;;12.00;99.90;;;;;;5046628;28;20276;-80
2021/09/09 04:21:21;;;;;;;20.20;15.23;;;12.00;99.90;;;;;;5046703;28;20213;-80
2021/09/09 04:23:46;;;;;;;23.40;14.88;;;12.00;99.90;;;;;;5063305;28;20584;-80
2021/09/09 04:26:12;;;;;;;23.17;15.35;;;12.00;99.90;;;;;;5046734;28;20186;-80
2021/09/09 04:28:38;;;;;;;19.00;13.70;;;12.00;99.90;;;;;;5046755;28;20692;-80
2021/09/09 04:31:04;;;;;;;21.35;14.43;;;12.00;99.90;;;;;;5046044;28;20205;-80
2021/09/09 04:33:29;;;;;;;24.27;14.45;;;11.90;99.90;;;;;;5046810;28;20188;-80
2021/09/09 04:35:55;;;;;;;20.45;14.13;;;11.90;99.90;;;;;;5064459;28;20197;-80
2021/09/09 04:38:21;;;;;;;21.80;15.05;;;11.90;99.90;;;;;;5046399;28;20179;-80
2021/09/09 04:40:46;;;;;;;19.98;14.02;;;11.90;99.90;;;;;;5046059;28;20740;-80
2021/09/09 04:43:12;;;;;;;19.90;13.93;;;11.90;99.90;;;;;;5046414;28;20185;-80
2021/09/09 04:45:37;;;;;;;21.15;15.23;;;11.90;99.90;;;;;;5045969;28;20186;-80
2021/09/09 04:48:03;;;;;;;19.67;14.30;;;11.90;99.90;;;;;;5046354;28;20663;-81
2021/09/09 04:50:29;;;;;;;23.08;14.95;;;11.90;99.90;;;;;;5064376;28;20203;-80
2021/09/09 04:52:54;;;;;;;23.38;15.40;;;11.90;99.90;;;;;;5046581;28;20181;-80
2021/09/09 04:55:20;;;;;;;21.63;15.40;;;11.90;99.90;;;;;;5063381;28;20310;-80
2021/09/09 04:57:45;;;;;;;20.08;14.15;;;11.80;99.90;;;;;;5063337;28;20544;-80
2021/09/09 05:00:11;;;;;;;22.60;15.30;;;11.80;99.90;;;;;;5045808;28;20192;-81
2021/09/09 05:02:37;;;;;;;19.95;15.07;;;11.80;99.90;;;;;;5046429;28;20187;-80
2021/09/09 05:05:03;;;;;;;23.10;15.27;;;11.80;99.90;;;;;;5045838;28;20182;-80
2021/09/09 05:07:28;;;;;;;22.38;15.50;;;11.80;99.90;;;;;;5064369;28;20181;-80
2021/09/09 05:09:54;;;;;;;22.10;14.85;;;11.90;99.90;;;;;;5045948;28;20261;-80
2021/09/09 05:12:19;;;;;;;20.67;15.23;;;12.00;99.90;;;;;;5045496;28;20292;-80
2021/09/09 05:14:45;;;;;;;20.58;15.65;;;12.00;99.90;;;;;;5045884;28;20706;-80
2021/09/09 05:17:11;;;;;;;20.02;14.20;;;12.00;99.90;;;;;;5045255;28;20659;-80
2021/09/09 05:19:36;;;;;;;18.70;14.70;;;12.10;99.90;;;;;;5063506;28;20188;-80
2021/09/09 05:22:02;;;;;;;20.25;15.05;;;12.10;99.90;;;;;;5049279;28;20213;-80
2021/09/09 05:24:27;;;;;;;21.40;15.73;;;12.20;99.90;;;;;;5051635;28;20188;-80
2021/09/09 05:26:53;;;;;;;17.35;13.32;;;12.20;99.90;;;;;;5062495;28;20204;-80
2021/09/09 05:29:22;;;;;;;19.17;14.93;;;12.30;99.90;;;;;;5045371;28;20189;-80
2021/09/09 05:31:48;;;;;;;20.50;14.60;;;12.30;99.90;;;;;;5045565;28;20296;-80
2021/09/09 05:34:14;;;;;;;17.02;13.23;;;12.40;99.90;;;;;;5062668;28;20186;-80
2021/09/09 05:36:39;;;;;;;19.33;13.95;;;12.40;99.90;;;;;;5045570;28;20782;-81
2021/09/09 05:39:05;;;;;;;19.45;14.45;;;12.40;99.90;;;;;;5062562;28;20182;-80
2021/09/09 05:41:30;;;;;;;19.23;14.25;;;12.50;99.90;;;;;;5045339;28;20308;-80
2021/09/09 05:43:56;;;;;;;17.42;13.32;;;12.60;99.90;;;;;;5045146;28;20185;-80
2021/09/09 05:46:21;;;;;;;18.80;13.45;;;12.70;99.90;;;;;;5063110;28;20225;-80
2021/09/09 05:48:47;;;;;;;17.75;13.77;;;12.90;99.90;;;;;;5045473;28;20604;-81
2021/09/09 05:51:12;;;;;;;20.20;14.68;;;12.90;99.90;;;;;;5062686;28;20380;-81
2021/09/09 05:53:38;;;;;;;24.30;14.35;;;13.00;99.90;;;;;;5062930;28;20283;-80
2021/09/09 05:56:04;;;;;;;20.05;14.50;;;13.10;99.90;;;;;;5062232;28;20458;-81
2021/09/09 05:58:29;;;;;;;19.15;14.25;;;13.20;99.90;;;;;;5045537;28;20213;-81
2021/09/09 06:00:55;;;;;;;18.27;13.52;;;13.30;99.90;;;;;;5062590;28;20201;-81
2021/09/09 06:03:24;;;;;;;19.92;12.70;;;13.30;99.90;;;;;;5045042;28;20614;-81
2021/09/09 06:05:53;;;;;;;17.25;13.27;;;13.40;99.90;;;;;;5062321;28;20173;-80
2021/09/09 06:08:19;;;;;;;17.83;14.10;;;13.50;99.90;;;;;;5047037;28;20235;-80
2021/09/09 06:10:44;;;;;;;18.15;13.50;;;13.70;99.90;;;;;;5047508;28;20206;-80
2021/09/09 06:13:11;;;;;;;18.20;13.77;;;13.80;99.90;;;;;;5048008;28;20660;-80
2021/09/09 06:15:36;;;;;;;21.55;14.55;;;13.90;99.90;;;;;;5047696;28;20201;-80
2021/09/09 06:18:02;;;;;;;16.17;14.20;;;14.10;99.90;;;;;;5066152;28;20549;-80
2021/09/09 06:20:28;;;;;;;19.40;14.88;;;14.10;99.90;;;;;;5056122;28;20328;-81
2021/09/09 06:22:53;;;;;;;18.50;14.65;;;14.20;99.90;;;;;;5048036;28;20181;-81
2021/09/09 06:25:19;;;;;;;17.45;13.65;;;14.30;99.90;;;;;;5065043;28;20655;-81
2021/09/09 06:27:45;;;;;;;18.67;13.65;;;14.40;99.90;;;;;;5065836;28;20181;-81
2021/09/09 06:30:11;;;;;;;16.02;13.32;;;14.60;99.90;;;;;;5047298;28;20209;-80
2021/09/09 06:32:36;;;;;;;16.25;13.30;;;14.70;99.90;;;;;;5048323;28;20186;-80
2021/09/09 06:35:02;;;;;;;19.02;13.13;;;14.80;99.90;;;;;;5047442;28;20212;-80
2021/09/09 06:37:28;;;;;;;16.98;13.05;;;14.90;99.90;;;;;;5065313;28;20189;-81
2021/09/09 06:39:53;;;;;;;16.75;13.70;;;15.10;99.90;;;;;;5047986;28;20516;-81
2021/09/09 06:42:19;;;;;;;16.02;13.00;;;15.20;99.90;;;;;;5065245;28;20219;-81
2021/09/09 06:44:46;;;;;;;17.13;13.43;;;15.30;99.90;;;;;;5046948;28;20585;-81
2021/09/09 06:47:11;;;;;;;17.85;14.50;;;15.40;99.90;;;;;;5063248;28;20193;-81
2021/09/09 06:49:37;;;;;;;16.50;12.90;;;15.50;99.90;;;;;;5047118;28;20187;-80
2021/09/09 06:52:03;;;;;;;18.80;13.13;;;15.60;99.90;;;;;;5047094;28;20201;-81
2021/09/09 06:54:28;;;;;;;16.60;13.18;;;15.80;99.90;;;;;;5047285;28;20200;-81
2021/09/09 06:56:54;;;;;;;17.50;14.55;;;15.90;99.90;;;;;;5065001;28;20183;-81
2021/09/09 06:59:19;;;;;;;17.70;13.52;;;15.90;99.90;;;;;;5063932;28;20177;-81
2021/09/09 07:01:45;;;;;;;17.20;13.75;;;16.00;99.90;;;;;;5047337;28;20230;-80
2021/09/09 07:04:11;;;;;;;17.40;13.88;;;16.20;99.90;;;;;;5064140;28;20208;-81
2021/09/09 07:06:36;;;;;;;15.43;12.25;;;16.10;99.90;;;;;;5047324;28;20185;-81
2021/09/09 07:09:02;;;;;;;17.50;13.93;;;16.30;99.90;;;;;;5064660;28;20314;-81
2021/09/09 07:11:27;;;;;;;17.45;12.82;;;16.50;99.90;;;;;;5055219;28;20220;-80
2021/09/09 07:13:53;;;;;;;16.17;13.07;;;16.70;99.90;;;;;;5064211;28;20656;-81
2021/09/09 07:16:18;;;;;;;21.95;15.40;;;16.80;99.90;;;;;;5062646;28;20799;-78
2021/09/09 07:18:44;;;;;;;18.17;13.30;;;17.00;99.90;;;;;;5044365;28;20201;-78
2021/09/09 07:21:10;;;;;;;16.73;13.52;;;17.10;99.90;;;;;;5062178;28;20201;-78
2021/09/09 07:23:35;;;;;;;16.67;13.13;;;17.30;99.90;;;;;;5062320;28;20177;-79
2021/09/09 07:26:01;;;;;;;16.45;12.82;;;17.30;99.90;;;;;;5060871;28;20560;-78
2021/09/09 07:28:26;;;;;;;16.80;12.48;;;17.40;99.90;;;;;;5044223;28;20191;-79
2021/09/09 07:30:52;;;;;;;16.83;13.02;;;17.60;99.90;;;;;;5060783;28;20193;-79
2021/09/09 07:33:18;;;;;;;16.90;12.70;;;17.80;99.90;;;;;;5044119;28;20230;-79
2021/09/09 07:35:43;;;;;;;17.33;11.55;;;18.00;99.90;;;;;;5061556;28;20208;-79
2021/09/09 07:38:10;;;;;;;15.82;12.48;;;18.20;99.90;;;;;;5060530;28;20189;-79
2021/09/09 07:40:36;;;;;;;16.55;11.52;;;18.50;99.90;;;;;;5061885;28;20282;-79
2021/09/09 07:43:01;;;;;;;16.92;12.40;;;18.70;99.90;;;;;;5044242;28;20215;-80
2021/09/09 07:45:29;;;;;;;13.88;11.63;;;18.80;99.90;;;;;;5043710;28;20264;-79
2021/09/09 07:47:54;;;;;;;15.15;10.88;;;19.10;99.90;;;;;;5061986;28;20580;-79
2021/09/09 07:50:20;;;;;;;15.65;11.13;;;19.30;99.90;;;;;;5061084;28;20212;-79
2021/09/09 07:52:45;;;;;;;15.73;10.95;;;19.50;99.90;;;;;;5061910;28;20188;-79
2021/09/09 07:55:11;;;;;;;13.05;10.88;;;19.60;99.90;;;;;;5060589;28;20221;-79
2021/09/09 07:57:37;;;;;;;14.10;10.77;;;19.80;99.90;;;;;;5043773;28;20181;-79
2021/09/09 08:00:06;;;;;;;14.07;9.70;;;20.00;99.90;;;;;;5061088;28;20189;-78
2021/09/09 08:02:32;;;;;;;13.10;9.45;;;20.10;99.90;;;;;;5043921;28;20647;-79
2021/09/09 08:04:57;;;;;;;15.35;8.63;;;20.30;99.90;;;;;;5045336;28;20190;-80
2021/09/09 08:07:23;;;;;;;12.77;8.48;;;20.50;99.90;;;;;;5043684;28;20259;-79
2021/09/09 08:09:48;;;;;;;10.75;8.80;;;20.70;99.90;;;;;;5061057;28;20933;-78
2021/09/09 08:12:14;;;;;;;9.93;7.53;;;20.70;99.90;;;;;;5043910;28;20259;-80
2021/09/09 08:14:40;;;;;;;11.05;8.55;;;20.80;99.90;;;;;;5062671;28;20221;-80
2021/09/09 08:17:05;;;;;;;11.38;7.78;;;20.90;99.90;;;;;;5046819;28;20202;-79
2021/09/09 08:19:31;;;;;;;11.77;8.23;;;21.10;99.90;;;;;;5044176;28;20177;-79
2021/09/09 08:21:56;;;;;;;11.50;8.18;;;21.20;99.90;;;;;;5044947;28;20207;-78
2021/09/09 08:24:22;;;;;;;10.48;8.57;;;21.20;99.90;;;;;;5061276;28;20560;-79
2021/09/09 08:26:48;;;;;;;8.82;7.32;;;21.30;99.90;;;;;;5045264;28;20206;-80
2021/09/09 08:29:13;;;;;;;10.30;8.48;;;21.30;99.90;;;;;;5046733;28;20231;-80
2021/09/09 08:31:39;;;;;;;10.50;8.00;;;21.30;99.90;;;;;;5048322;28;20805;-80
2021/09/09 08:34:05;;;;;;;8.60;7.70;;;21.50;99.90;;;;;;5047090;28;20189;-79
2021/09/09 08:36:31;;;;;;;9.45;7.30;;;21.70;99.90;;;;;;5065122;28;20206;-79
2021/09/09 08:38:57;;;;;;;9.98;6.60;;;21.80;99.90;;;;;;5064887;28;20192;-79
2021/09/09 08:41:22;;;;;;;7.13;6.10;;;22.00;99.90;;;;;;5064115;28;20444;-79
2021/09/09 08:43:48;;;;;;;8.90;7.07;;;22.20;99.90;;;;;;5065133;28;20277;-79
2021/09/09 08:46:16;;;;;;;8.43;6.43;;;22.30;99.90;;;;;;5064656;28;20185;-79
2021/09/09 08:48:44;;;;;;;8.88;6.68;;;22.40;99.90;;;;;;5064904;28;20586;-80
2021/09/09 08:51:09;;;;;;;7.32;6.38;;;22.50;99.90;;;;;;5046640;28;20277;-79
2021/09/09 08:53:36;;;;;;;8.23;6.45;;;22.50;99.90;;;;;;5064633;28;20622;-79
2021/09/09 08:56:02;;;;;;;7.70;6.15;;;22.60;99.90;;;;;;5063862;28;20216;-79
2021/09/09 08:58:28;;;;;;;7.72;6.53;;;22.80;99.90;;;;;;5064236;28;20598;-79
2021/09/09 09:01:23;;;;;;;8.00;6.22;;;23.00;99.90;;;;;;5046640;28;20227;-79
2021/09/09 09:03:57;;;;;;;7.53;6.13;;;23.20;99.90;;;;;;5044964;28;20247;-79
2021/09/09 09:06:25;;;;;;;8.23;5.55;;;23.50;99.90;;;;;;5063654;28;20172;-79
2021/09/09 09:08:55;;;;;;;8.63;5.90;;;23.60;99.90;;;;;;5064416;28;20701;-79
2021/09/09 09:11:43;;;;;;;7.38;6.00;;;23.80;99.90;;;;;;5045671;28;20208;-79
2021/09/09 09:14:11;;;;;;;8.05;5.85;;;23.90;99.90;;;;;;5063351;28;20182;-80
2021/09/09 09:16:43;;;;;;;8.00;5.70;;;24.00;99.90;;;;;;5064132;28;20205;-79
2021/09/09 09:19:11;;;;;;;6.88;5.63;;;24.00;99.90;;;;;;5063535;28;20182;-78
2021/09/09 09:21:41;;;;;;;7.43;5.22;;;24.20;99.90;;;;;;5064251;28;20288;-79
2021/09/09 09:24:07;;;;;;;8.00;5.90;;;24.20;99.90;;;;;;5045532;28;20182;-79
2021/09/09 09:26:33;;;;;;;7.30;5.80;;;24.20;99.90;;;;;;5046047;28;20188;-79
2021/09/09 09:29:00;;;;;;;8.75;5.78;;;24.20;99.90;;;;;;5046214;28;20378;-79
2021/09/09 09:31:27;;;;;;;8.10;5.75;;;24.30;99.90;;;;;;5062801;28;20563;-79
2021/09/09 09:34:04;;;;;;;7.07;5.40;;;24.40;99.90;;;;;;5063427;28;20239;-79
2021/09/09 09:36:35;;;;;;;7.03;5.35;;;24.50;99.90;;;;;;5045653;28;20209;-79
2021/09/09 09:39:09;;;;;;;7.72;5.97;;;24.60;99.90;;;;;;5046073;28;20182;-79
2021/09/09 09:42:00;;;;;;;7.22;5.47;;;24.70;99.90;;;;;;5063513;28;20200;-79
2021/09/09 09:44:38;;;;;;;7.68;5.38;;;24.70;99.90;;;;;;5051708;28;20186;-80
2021/09/09 09:47:31;;;;;;;6.28;5.35;;;24.60;99.90;;;;;;5046379;28;20208;-79
2021/09/09 09:49:58;;;;;;;6.68;5.30;;;24.70;99.90;;;;;;5063822;28;20212;-79
2021/09/09 09:52:26;;;;;;;6.20;4.90;;;25.00;99.90;;;;;;5046210;28;20174;-79
2021/09/09 09:55:00;;;;;;;6.68;4.88;;;25.30;99.90;;;;;;5063013;28;20254;-79
2021/09/09 09:57:29;;;;;;;5.90;4.78;;;25.40;99.90;;;;;;5045444;28;20201;-80
2021/09/09 09:59:55;;;;;;;6.00;4.68;;;25.40;99.90;;;;;;5045698;28;20182;-79
2021/09/09 10:02:21;;;;;;;6.20;4.60;;;25.60;99.90;;;;;;5045920;28;20229;-80
2021/09/09 10:04:49;;;;;;;8.50;6.03;;;25.70;99.90;;;;;;5067773;28;20196;-80
2021/09/09 10:07:15;;;;;;;10.25;5.30;;;25.70;99.90;;;;;;5064457;28;20263;-81
2021/09/09 10:09:42;;;;;;;6.20;5.20;;;25.70;99.90;;;;;;5062531;28;20231;-79
2021/09/09 10:12:09;;;;;;;6.15;5.47;;;25.70;99.90;;;;;;5063114;28;20210;-79
2021/09/09 10:14:39;;;;;;;5.57;4.47;;;25.80;99.90;;;;;;5062958;28;20209;-79
2021/09/09 10:17:07;;;;;;;8.25;4.97;;;25.70;99.90;;;;;;5044943;28;20197;-79
2021/09/09 10:19:34;;;;;;;6.10;4.85;;;25.70;99.90;;;;;;5062567;28;20170;-79
2021/09/09 10:22:04;;;;;;;5.13;4.47;;;25.90;99.90;;;;;;5063185;28;20233;-79
2021/09/09 10:24:33;;;;;;;4.85;4.35;;;26.00;99.90;;;;;;5044679;28;20264;-80
2021/09/09 10:27:27;;;;;;;6.32;4.70;;;26.00;99.90;;;;;;5062965;28;20182;-79
2021/09/09 10:29:54;;;;;;;7.30;4.90;;;25.90;99.90;;;;;;5062141;28;20177;-79
2021/09/09 10:32:31;;;;;;;7.00;4.57;;;25.90;99.90;;;;;;5044485;28;20198;-79
2021/09/09 10:35:18;;;;;;;5.72;4.90;;;26.00;99.90;;;;;;5062540;28;20241;-80
2021/09/09 10:37:52;;;;;;;7.55;4.95;;;26.00;99.90;;;;;;5063165;28;20219;-79
2021/09/09 10:40:37;;;;;;;6.07;5.22;;;26.10;99.90;;;;;;5061474;28;20288;-79
2021/09/09 10:43:05;;;;;;;5.43;4.90;;;26.40;99.90;;;;;;5044473;28;20181;-80
2021/09/09 10:45:43;;;;;;;6.70;5.15;;;26.50;99.90;;;;;;5062268;28;20243;-79
2021/09/09 10:48:14;;;;;;;6.00;4.97;;;26.60;99.90;;;;;;5062440;28;20185;-79
2021/09/09 10:50:40;;;;;;;7.20;5.25;;;26.50;99.90;;;;;;5044318;28;20583;-79
2021/09/09 10:53:12;;;;;;;5.90;4.90;;;26.50;99.90;;;;;;5062164;28;20687;-79
2021/09/09 10:55:40;;;;;;;7.22;5.20;;;26.40;99.90;;;;;;5060605;28;20258;-79
2021/09/09 10:58:20;;;;;;;5.38;4.80;;;26.50;99.90;;;;;;5062058;28;20185;-79
2021/09/09 11:00:57;;;;;;;8.13;4.30;;;26.80;99.90;;;;;;5044069;28;20456;-79
2021/09/09 11:03:43;;;;;;;4.72;4.22;;;26.90;99.90;;;;;;5062435;28;20628;-80
2021/09/09 11:06:10;;;;;;;6.95;5.10;;;27.00;99.90;;;;;;5044319;28;20565;-79
2021/09/09 11:08:37;;;;;;;7.30;5.03;;;27.10;99.90;;;;;;5062205;28;20186;-80
2021/09/09 11:11:05;;;;;;;6.43;4.88;;;27.10;99.90;;;;;;5061403;28;20205;-80
2021/09/09 11:13:32;;;;;;;5.68;4.57;;;27.30;99.90;;;;;;5044249;28;20185;-79
2021/09/09 11:15:59;;;;;;;5.80;5.00;;;27.40;99.90;;;;;;5044350;28;20698;-79
2021/09/09 11:18:30;;;;;;;5.70;4.55;;;27.50;99.90;;;;;;5062386;28;20389;-79
2021/09/09 11:21:07;;;;;;;10.25;4.68;;;27.50;99.90;;;;;;5061484;28;20193;-79
2021/09/09 11:23:34;;;;;;;6.43;4.40;;;27.60;99.90;;;;;;5043961;28;20284;-80
2021/09/09 11:26:12;;;;;;;5.40;4.82;;;27.50;99.90;;;;;;5044217;28;20262;-79
2021/09/09 11:28:38;;;;;;;6.78;4.82;;;27.70;99.90;;;;;;5061857;28;20185;-79
2021/09/09 11:31:09;;;;;;;7.93;4.85;;;27.70;99.40;;;;;;5061669;28;20713;-80
2021/09/09 11:33:56;;;;;;;6.72;5.00;;;27.70;99.50;;;;;;5062999;28;20188;-79
2021/09/09 11:36:32;;;;;;;6.07;4.78;;;27.80;99.80;;;;;;5045293;28;20233;-80
2021/09/09 11:38:59;;;;;;;5.45;4.65;;;27.80;98.90;;;;;;5044497;28;20226;-79
2021/09/09 11:41:29;;;;;;;5.20;4.68;;;28.00;99.70;;;;;;5062312;28;20456;-80
2021/09/09 11:44:02;;;;;;;4.65;4.22;;;27.90;98.80;;;;;;5061973;28;20169;-79
2021/09/09 11:46:35;;;;;;;6.60;5.47;;;27.70;98.70;;;;;;5062376;28;20515;-79
2021/09/09 11:49:10;;;;;;;7.80;4.55;;;27.70;97.50;;;;;;5064150;28;20177;-79
2021/09/09 11:51:39;;;;;;;6.38;4.57;;;27.70;98.20;;;;;;5062690;28;20208;-79
2021/09/09 11:54:08;;;;;;;6.28;5.00;;;27.80;99.10;;;;;;5061557;28;20188;-80
2021/09/09 11:56:36;;;;;;;5.30;4.57;;;27.70;99.50;;;;;;5061277;28;20343;-79
2021/09/09 11:59:03;;;;;;;4.50;4.10;;;27.80;99.00;;;;;;5062067;28;20650;-79
2021/09/09 12:01:34;;;;;;;4.82;4.30;;;27.90;97.00;;;;;;5044680;28;20705;-79
2021/09/09 12:04:01;;;;;;;4.65;4.20;;;28.00;97.30;;;;;;5062750;28;20277;-80
2021/09/09 12:06:27;;;;;;;4.82;4.28;;;27.90;96.80;;;;;;5063531;28;20189;-79
2021/09/09 12:08:53;;;;;;;4.88;4.32;;;28.10;96.20;;;;;;5066286;28;20583;-80
2021/09/09 12:11:19;;;;;;;5.95;4.40;;;28.10;94.80;;;;;;5066276;28;20887;-79
2021/09/09 12:13:45;;;;;;;4.40;4.00;;;28.10;94.50;;;;;;5066615;28;20182;-80
2021/09/09 12:16:14;;;;;;;7.13;4.68;;;28.30;94.70;;;;;;5065974;28;20217;-80
2021/09/09 12:18:40;;;;;;;8.70;4.10;;;28.20;93.90;;;;;;5066608;28;20217;-79
2021/09/09 12:21:12;;;;;;;10.68;4.50;;;28.20;94.10;;;;;;5065856;28;20281;-80
2021/09/09 12:23:38;;;;;;;5.95;4.63;;;28.00;93.40;;;;;;5064587;28;20182;-80
2021/09/09 12:26:15;;;;;;;5.43;4.38;;;28.20;95.20;;;;;;5066328;28;20178;-79
2021/09/09 12:28:41;;;;;;;5.38;4.40;;;28.20;93.80;;;;;;5067284;28;20181;-80
2021/09/09 12:31:07;;;;;;;4.75;4.05;;;28.20;95.00;;;;;;5066953;28;20205;-79
2021/09/09 12:33:35;;;;;;;4.30;3.70;;;28.20;93.30;;;;;;5068544;28;20732;-79
2021/09/09 12:36:18;;;;;;;4.50;4.10;;;27.90;93.10;;;;;;5064666;28;20217;-83